sensor_id;sensor_type;location;lat;lon;timestamp;pressure;altitude;pressure_sealevel;temperature;humidity
73332;BME280;61560;33.718;73.040;2023-05-07T00:02:12;94241.50;;;21.71;46.50
73332;BME280;61560;33.718;73.040;2023-05-07T00:04:39;94244.03;;;21.69;46.41
73332;BME280;61560;33.718;73.040;2023-05-07T00:07:06;94250.34;;;21.70;46.05
73332;BME280;61560;33.718;73.040;2023-05-07T00:09:32;94258.66;;;21.59;46.07
73332;BME280;61560;33.718;73.040;2023-05-07T00:11:59;94268.25;;;21.52;46.46
73332;BME280;61560;33.718;73.040;2023-05-07T00:14:25;94266.44;;;21.49;46.18
73332;BME280;61560;33.718;73.040;2023-05-07T00:16:53;94266.94;;;21.48;46.26
73332;BME280;61560;33.718;73.040;2023-05-07T00:19:19;94272.50;;;21.48;46.00
73332;BME280;61560;33.718;73.040;2023-05-07T00:21:46;94284.69;;;21.50;46.30
73332;BME280;61560;33.718;73.040;2023-05-07T00:24:12;94277.81;;;21.46;46.31
73332;BME280;61560;33.718;73.040;2023-05-07T00:26:40;94273.78;;;21.47;46.21
73332;BME280;61560;33.718;73.040;2023-05-07T00:29:07;94272.72;;;21.39;46.19
73332;BME280;61560;33.718;73.040;2023-05-07T00:31:35;94274.75;;;21.38;46.35
73332;BME280;61560;33.718;73.040;2023-05-07T00:34:01;94275.72;;;21.35;46.32
73332;BME280;61560;33.718;73.040;2023-05-07T00:36:28;94275.19;;;21.31;46.60
73332;BME280;61560;33.718;73.040;2023-05-07T00:38:57;94282.03;;;21.30;46.85
73332;BME280;61560;33.718;73.040;2023-05-07T00:41:26;94283.28;;;21.29;46.89
73332;BME280;61560;33.718;73.040;2023-05-07T00:43:52;94281.50;;;21.26;46.81
73332;BME280;61560;33.718;73.040;2023-05-07T00:46:20;94290.13;;;21.28;46.79
73332;BME280;61560;33.718;73.040;2023-05-07T00:48:50;94280.19;;;21.22;47.04
73332;BME280;61560;33.718;73.040;2023-05-07T00:51:18;94304.03;;;21.28;47.11
73332;BME280;61560;33.718;73.040;2023-05-07T00:53:45;94311.91;;;21.30;47.07
73332;BME280;61560;33.718;73.040;2023-05-07T00:56:13;94318.00;;;21.34;47.09
73332;BME280;61560;33.718;73.040;2023-05-07T00:58:40;94322.31;;;21.35;47.12
73332;BME280;61560;33.718;73.040;2023-05-07T01:01:36;94325.66;;;21.39;47.34
73332;BME280;61560;33.718;73.040;2023-05-07T01:04:03;94323.94;;;21.47;47.06
73332;BME280;61560;33.718;73.040;2023-05-07T01:06:32;94317.66;;;21.57;47.36
73332;BME280;61560;33.718;73.040;2023-05-07T01:09:01;94326.34;;;21.65;47.22
73332;BME280;61560;33.718;73.040;2023-05-07T01:11:28;94325.34;;;21.68;47.75
73332;BME280;61560;33.718;73.040;2023-05-07T01:13:55;94331.72;;;21.74;47.76
73332;BME280;61560;33.718;73.040;2023-05-07T01:16:23;94337.41;;;21.85;47.65
73332;BME280;61560;33.718;73.040;2023-05-07T01:18:50;94341.53;;;21.95;47.41
73332;BME280;61560;33.718;73.040;2023-05-07T01:21:17;94348.69;;;22.07;46.80
73332;BME280;61560;33.718;73.040;2023-05-07T01:23:45;94355.34;;;22.15;47.45
73332;BME280;61560;33.718;73.040;2023-05-07T01:26:13;94358.44;;;22.23;46.98
73332;BME280;61560;33.718;73.040;2023-05-07T01:28:41;94359.00;;;22.32;46.93
73332;BME280;61560;33.718;73.040;2023-05-07T01:31:08;94372.28;;;22.54;46.50
73332;BME280;61560;33.718;73.040;2023-05-07T01:33:38;94376.94;;;22.68;47.02
73332;BME280;61560;33.718;73.040;2023-05-07T01:36:10;94378.06;;;22.98;46.97
73332;BME280;61560;33.718;73.040;2023-05-07T01:38:38;94375.66;;;23.55;45.38
73332;BME280;61560;33.718;73.040;2023-05-07T01:41:06;94374.72;;;24.66;43.27
73332;BME280;61560;33.718;73.040;2023-05-07T01:43:34;94368.53;;;26.06;40.21
73332;BME280;61560;33.718;73.040;2023-05-07T01:46:01;94373.97;;;27.38;37.01
73332;BME280;61560;33.718;73.040;2023-05-07T01:48:29;94381.81;;;28.40;35.01
73332;BME280;61560;33.718;73.040;2023-05-07T01:50:55;94399.28;;;29.30;33.16
73332;BME280;61560;33.718;73.040;2023-05-07T01:53:22;94398.44;;;30.23;31.30
73332;BME280;61560;33.718;73.040;2023-05-07T01:55:48;94395.56;;;31.13;29.86
73332;BME280;61560;33.718;73.040;2023-05-07T01:58:16;94396.88;;;31.56;29.31
73332;BME280;61560;33.718;73.040;2023-05-07T02:00:43;94403.28;;;32.07;28.82
73332;BME280;61560;33.718;73.040;2023-05-07T02:03:10;94417.53;;;32.52;28.47
73332;BME280;61560;33.718;73.040;2023-05-07T02:05:48;94414.09;;;33.14;27.33
73332;BME280;61560;33.718;73.040;2023-05-07T02:08:26;94416.47;;;33.55;26.74
73332;BME280;61560;33.718;73.040;2023-05-07T02:10:54;94420.16;;;33.80;26.60
73332;BME280;61560;33.718;73.040;2023-05-07T02:13:20;94417.00;;;34.09;25.96
73332;BME280;61560;33.718;73.040;2023-05-07T02:15:49;94420.13;;;34.28;26.00
73332;BME280;61560;33.718;73.040;2023-05-07T02:18:17;94422.25;;;34.44;25.07
73332;BME280;61560;33.718;73.040;2023-05-07T02:20:44;94418.97;;;34.80;25.02
73332;BME280;61560;33.718;73.040;2023-05-07T02:23:10;94407.75;;;35.24;24.52
73332;BME280;61560;33.718;73.040;2023-05-07T02:25:37;94419.97;;;35.17;23.70
73332;BME280;61560;33.718;73.040;2023-05-07T02:28:04;94422.09;;;34.92;24.09
73332;BME280;61560;33.718;73.040;2023-05-07T02:30:42;94416.53;;;35.18;24.12
73332;BME280;61560;33.718;73.040;2023-05-07T02:33:09;94413.78;;;35.28;23.81
73332;BME280;61560;33.718;73.040;2023-05-07T02:35:38;94410.84;;;35.01;24.20
73332;BME280;61560;33.718;73.040;2023-05-07T02:38:05;94410.34;;;34.88;24.52
73332;BME280;61560;33.718;73.040;2023-05-07T02:40:32;94410.13;;;34.44;25.19
73332;BME280;61560;33.718;73.040;2023-05-07T02:42:59;94400.28;;;33.73;25.88
73332;BME280;61560;33.718;73.040;2023-05-07T02:45:26;94406.75;;;33.03;26.91
73332;BME280;61560;33.718;73.040;2023-05-07T02:47:54;94411.50;;;32.48;27.69
73332;BME280;61560;33.718;73.040;2023-05-07T02:50:21;94413.06;;;31.91;27.93
73332;BME280;61560;33.718;73.040;2023-05-07T02:52:47;94420.31;;;31.56;29.06
73332;BME280;61560;33.718;73.040;2023-05-07T02:55:14;94412.56;;;31.21;29.09
73332;BME280;61560;33.718;73.040;2023-05-07T02:57:40;94421.69;;;30.78;29.41
73332;BME280;61560;33.718;73.040;2023-05-07T03:00:15;94416.28;;;30.59;28.45
73332;BME280;61560;33.718;73.040;2023-05-07T03:02:51;94423.66;;;30.21;29.47
73332;BME280;61560;33.718;73.040;2023-05-07T03:05:19;94420.19;;;29.95;29.46
73332;BME280;61560;33.718;73.040;2023-05-07T03:07:46;94417.66;;;30.04;30.05
73332;BME280;61560;33.718;73.040;2023-05-07T03:10:14;94411.00;;;29.81;29.48
73332;BME280;61560;33.718;73.040;2023-05-07T03:12:41;94418.63;;;29.73;29.96
73332;BME280;61560;33.718;73.040;2023-05-07T03:15:10;94421.78;;;29.69;28.69
73332;BME280;61560;33.718;73.040;2023-05-07T03:17:38;94425.03;;;29.27;28.88
73332;BME280;61560;33.718;73.040;2023-05-07T03:20:07;94427.94;;;29.21;29.41
73332;BME280;61560;33.718;73.040;2023-05-07T03:22:34;94421.31;;;29.32;29.53
73332;BME280;61560;33.718;73.040;2023-05-07T03:25:01;94420.13;;;29.27;30.22
73332;BME280;61560;33.718;73.040;2023-05-07T03:27:28;94428.38;;;29.25;29.62
73332;BME280;61560;33.718;73.040;2023-05-07T03:29:55;94429.69;;;29.71;29.83
73332;BME280;61560;33.718;73.040;2023-05-07T03:32:22;94432.00;;;30.27;29.71
73332;BME280;61560;33.718;73.040;2023-05-07T03:34:48;94432.84;;;31.04;27.50
73332;BME280;61560;33.718;73.040;2023-05-07T03:37:15;94433.22;;;31.80;25.93
73332;BME280;61560;33.718;73.040;2023-05-07T03:39:43;94445.34;;;32.84;26.18
73332;BME280;61560;33.718;73.040;2023-05-07T03:42:10;94448.41;;;33.78;24.66
73332;BME280;61560;33.718;73.040;2023-05-07T03:44:37;94445.16;;;34.79;24.13
73332;BME280;61560;33.718;73.040;2023-05-07T03:47:23;94436.09;;;35.56;22.71
73332;BME280;61560;33.718;73.040;2023-05-07T03:49:54;94444.47;;;36.05;21.81
73332;BME280;61560;33.718;73.040;2023-05-07T03:52:23;94444.03;;;36.89;21.92
73332;BME280;61560;33.718;73.040;2023-05-07T03:54:54;94454.13;;;37.74;20.78
73332;BME280;61560;33.718;73.040;2023-05-07T03:57:21;94454.53;;;38.57;20.02
73332;BME280;61560;33.718;73.040;2023-05-07T03:59:48;94467.16;;;39.03;18.88
73332;BME280;61560;33.718;73.040;2023-05-07T04:02:14;94454.03;;;39.10;18.28
73332;BME280;61560;33.718;73.040;2023-05-07T04:04:42;94451.31;;;39.64;17.69
73332;BME280;61560;33.718;73.040;2023-05-07T04:07:09;94460.78;;;40.09;17.25
73332;BME280;61560;33.718;73.040;2023-05-07T04:09:41;94463.94;;;40.45;16.35
73332;BME280;61560;33.718;73.040;2023-05-07T04:12:09;94462.78;;;40.95;15.96
73332;BME280;61560;33.718;73.040;2023-05-07T04:14:35;94472.53;;;40.90;15.71
73332;BME280;61560;33.718;73.040;2023-05-07T04:17:02;94469.53;;;40.43;16.33
73332;BME280;61560;33.718;73.040;2023-05-07T04:19:29;94473.53;;;40.17;16.99
73332;BME280;61560;33.718;73.040;2023-05-07T04:21:56;94473.09;;;40.32;16.27
73332;BME280;61560;33.718;73.040;2023-05-07T04:24:23;94472.53;;;41.13;15.52
73332;BME280;61560;33.718;73.040;2023-05-07T04:26:50;94473.59;;;41.89;14.66
73332;BME280;61560;33.718;73.040;2023-05-07T04:29:17;94482.13;;;41.87;15.42
73332;BME280;61560;33.718;73.040;2023-05-07T04:31:44;94475.91;;;41.21;15.48
73332;BME280;61560;33.718;73.040;2023-05-07T04:34:12;94485.88;;;40.08;16.36
73332;BME280;61560;33.718;73.040;2023-05-07T04:36:40;94485.34;;;39.90;16.73
73332;BME280;61560;33.718;73.040;2023-05-07T04:39:10;94475.41;;;40.13;16.35
73332;BME280;61560;33.718;73.040;2023-05-07T04:41:38;94482.81;;;40.60;15.96
73332;BME280;61560;33.718;73.040;2023-05-07T04:44:06;94482.03;;;41.04;15.52
73332;BME280;61560;33.718;73.040;2023-05-07T04:46:34;94476.66;;;41.44;15.31
73332;BME280;61560;33.718;73.040;2023-05-07T04:49:01;94479.66;;;41.58;15.50
73332;BME280;61560;33.718;73.040;2023-05-07T04:51:30;94480.75;;;40.83;16.07
73332;BME280;61560;33.718;73.040;2023-05-07T04:53:59;94483.94;;;39.59;16.97
73332;BME280;61560;33.718;73.040;2023-05-07T04:56:30;94483.66;;;38.84;17.52
73332;BME280;61560;33.718;73.040;2023-05-07T04:58:57;94479.59;;;37.99;17.80
73332;BME280;61560;33.718;73.040;2023-05-07T05:01:25;94480.97;;;36.60;19.04
73332;BME280;61560;33.718;73.040;2023-05-07T05:03:51;94478.38;;;36.45;19.61
73332;BME280;61560;33.718;73.040;2023-05-07T05:06:19;94478.19;;;36.70;19.88
73332;BME280;61560;33.718;73.040;2023-05-07T05:08:45;94473.44;;;36.29;20.03
73332;BME280;61560;33.718;73.040;2023-05-07T05:11:12;94489.75;;;35.25;21.40
73332;BME280;61560;33.718;73.040;2023-05-07T05:13:39;94487.00;;;35.35;21.22
73332;BME280;61560;33.718;73.040;2023-05-07T05:16:12;94471.91;;;36.45;20.09
73332;BME280;61560;33.718;73.040;2023-05-07T05:18:40;94477.44;;;36.69;19.47
73332;BME280;61560;33.718;73.040;2023-05-07T05:21:08;94469.78;;;36.72;19.54
73332;BME280;61560;33.718;73.040;2023-05-07T05:23:35;94469.56;;;36.87;19.20
73332;BME280;61560;33.718;73.040;2023-05-07T05:26:02;94473.22;;;36.70;19.08
73332;BME280;61560;33.718;73.040;2023-05-07T05:28:31;94470.22;;;36.42;19.67
73332;BME280;61560;33.718;73.040;2023-05-07T05:30:59;94485.22;;;35.64;21.20
73332;BME280;61560;33.718;73.040;2023-05-07T05:33:28;94482.44;;;35.15;21.87
73332;BME280;61560;33.718;73.040;2023-05-07T05:36:01;94473.56;;;34.86;22.47
73332;BME280;61560;33.718;73.040;2023-05-07T05:38:27;94475.78;;;35.20;22.37
73332;BME280;61560;33.718;73.040;2023-05-07T05:40:54;94481.75;;;34.82;21.41
73332;BME280;61560;33.718;73.040;2023-05-07T05:43:21;94474.63;;;34.09;22.54
73332;BME280;61560;33.718;73.040;2023-05-07T05:45:48;94475.41;;;33.17;24.72
73332;BME280;61560;33.718;73.040;2023-05-07T05:48:14;94476.53;;;32.46;25.79
73332;BME280;61560;33.718;73.040;2023-05-07T05:50:42;94476.28;;;31.78;26.42
73332;BME280;61560;33.718;73.040;2023-05-07T05:53:09;94471.38;;;31.43;26.66
73332;BME280;61560;33.718;73.040;2023-05-07T05:55:37;94467.47;;;31.18;26.46
73332;BME280;61560;33.718;73.040;2023-05-07T05:58:04;94457.28;;;31.51;27.44
73332;BME280;61560;33.718;73.040;2023-05-07T06:00:34;94454.59;;;32.77;26.21
73332;BME280;61560;33.718;73.040;2023-05-07T06:03:03;94449.22;;;33.56;24.77
73332;BME280;61560;33.718;73.040;2023-05-07T06:05:30;94453.72;;;34.14;23.98
73332;BME280;61560;33.718;73.040;2023-05-07T06:07:57;94447.09;;;34.12;23.76
73332;BME280;61560;33.718;73.040;2023-05-07T06:10:26;94455.28;;;34.08;23.84
73332;BME280;61560;33.718;73.040;2023-05-07T06:13:00;94459.06;;;34.10;23.41
73332;BME280;61560;33.718;73.040;2023-05-07T06:15:28;94448.53;;;33.88;23.67
73332;BME280;61560;33.718;73.040;2023-05-07T06:17:54;94447.94;;;33.90;23.60
73332;BME280;61560;33.718;73.040;2023-05-07T06:20:24;94439.81;;;33.24;24.10
73332;BME280;61560;33.718;73.040;2023-05-07T06:22:51;94437.75;;;33.24;24.35
73332;BME280;61560;33.718;73.040;2023-05-07T06:25:20;94439.41;;;33.50;24.24
73332;BME280;61560;33.718;73.040;2023-05-07T06:27:46;94436.94;;;33.54;23.60
73332;BME280;61560;33.718;73.040;2023-05-07T06:30:13;94444.31;;;33.42;23.75
73332;BME280;61560;33.718;73.040;2023-05-07T06:32:40;94430.91;;;33.35;24.25
73332;BME280;61560;33.718;73.040;2023-05-07T06:35:08;94415.75;;;33.32;23.95
73332;BME280;61560;33.718;73.040;2023-05-07T06:37:38;94426.31;;;33.47;23.25
73332;BME280;61560;33.718;73.040;2023-05-07T06:40:07;94426.00;;;33.28;23.80
73332;BME280;61560;33.718;73.040;2023-05-07T06:42:36;94433.25;;;32.83;24.19
73332;BME280;61560;33.718;73.040;2023-05-07T06:45:21;94423.78;;;32.58;24.39
73332;BME280;61560;33.718;73.040;2023-05-07T06:47:48;94421.47;;;32.34;24.83
73332;BME280;61560;33.718;73.040;2023-05-07T06:50:15;94419.41;;;32.35;24.26
73332;BME280;61560;33.718;73.040;2023-05-07T06:52:46;94419.38;;;32.27;23.83
73332;BME280;61560;33.718;73.040;2023-05-07T06:55:12;94418.41;;;32.09;23.98
73332;BME280;61560;33.718;73.040;2023-05-07T06:57:40;94408.78;;;32.05;24.56
73332;BME280;61560;33.718;73.040;2023-05-07T07:00:07;94414.44;;;31.97;24.26
73332;BME280;61560;33.718;73.040;2023-05-07T07:02:45;94408.00;;;31.97;24.46
73332;BME280;61560;33.718;73.040;2023-05-07T07:05:13;94409.06;;;31.86;24.14
73332;BME280;61560;33.718;73.040;2023-05-07T07:07:40;94409.53;;;32.13;24.48
73332;BME280;61560;33.718;73.040;2023-05-07T07:10:07;94403.09;;;32.12;24.43
73332;BME280;61560;33.718;73.040;2023-05-07T07:12:34;94408.03;;;32.19;25.27
73332;BME280;61560;33.718;73.040;2023-05-07T07:15:01;94397.78;;;31.94;24.15
73332;BME280;61560;33.718;73.040;2023-05-07T07:17:28;94403.78;;;31.83;25.52
73332;BME280;61560;33.718;73.040;2023-05-07T07:19:56;94397.16;;;31.73;26.06
73332;BME280;61560;33.718;73.040;2023-05-07T07:22:22;94399.78;;;31.78;25.89
73332;BME280;61560;33.718;73.040;2023-05-07T07:24:49;94389.69;;;32.05;25.53
73332;BME280;61560;33.718;73.040;2023-05-07T07:27:17;94381.56;;;32.17;25.22
73332;BME280;61560;33.718;73.040;2023-05-07T07:29:44;94381.97;;;32.21;26.11
73332;BME280;61560;33.718;73.040;2023-05-07T07:32:11;94385.00;;;32.31;25.81
73332;BME280;61560;33.718;73.040;2023-05-07T07:34:39;94377.63;;;32.35;25.71
73332;BME280;61560;33.718;73.040;2023-05-07T07:37:06;94371.75;;;32.25;25.61
73332;BME280;61560;33.718;73.040;2023-05-07T07:39:34;94361.56;;;32.07;25.14
73332;BME280;61560;33.718;73.040;2023-05-07T07:42:06;94360.72;;;31.92;25.33
73332;BME280;61560;33.718;73.040;2023-05-07T07:44:33;94359.22;;;31.83;24.52
73332;BME280;61560;33.718;73.040;2023-05-07T07:47:05;94359.00;;;31.74;25.15
73332;BME280;61560;33.718;73.040;2023-05-07T07:49:33;94341.81;;;31.72;24.90
73332;BME280;61560;33.718;73.040;2023-05-07T07:52:03;94350.16;;;31.77;23.46
73332;BME280;61560;33.718;73.040;2023-05-07T07:54:32;94340.84;;;31.62;23.19
73332;BME280;61560;33.718;73.040;2023-05-07T07:56:58;94341.94;;;31.51;24.10
73332;BME280;61560;33.718;73.040;2023-05-07T07:59:28;94335.19;;;31.62;23.90
73332;BME280;61560;33.718;73.040;2023-05-07T08:01:54;94335.59;;;31.73;24.68
73332;BME280;61560;33.718;73.040;2023-05-07T08:04:25;94326.59;;;31.97;25.28
73332;BME280;61560;33.718;73.040;2023-05-07T08:06:53;94330.75;;;32.04;25.60
73332;BME280;61560;33.718;73.040;2023-05-07T08:09:26;94324.31;;;32.11;24.70
73332;BME280;61560;33.718;73.040;2023-05-07T08:11:56;94325.28;;;32.06;25.08
73332;BME280;61560;33.718;73.040;2023-05-07T08:14:24;94321.06;;;31.92;24.22
73332;BME280;61560;33.718;73.040;2023-05-07T08:16:51;94316.16;;;31.77;25.03
73332;BME280;61560;33.718;73.040;2023-05-07T08:19:19;94303.69;;;31.73;25.23
73332;BME280;61560;33.718;73.040;2023-05-07T08:21:46;94301.97;;;31.70;24.92
73332;BME280;61560;33.718;73.040;2023-05-07T08:24:15;94293.84;;;31.59;24.91
73332;BME280;61560;33.718;73.040;2023-05-07T08:26:43;94300.41;;;31.46;25.09
73332;BME280;61560;33.718;73.040;2023-05-07T08:29:10;94285.59;;;31.17;24.63
73332;BME280;61560;33.718;73.040;2023-05-07T08:31:37;94281.00;;;30.99;24.79
73332;BME280;61560;33.718;73.040;2023-05-07T08:34:05;94259.84;;;30.93;25.22
73332;BME280;61560;33.718;73.040;2023-05-07T08:36:36;94262.50;;;30.98;25.71
73332;BME280;61560;33.718;73.040;2023-05-07T08:39:03;94264.63;;;31.05;25.10
73332;BME280;61560;33.718;73.040;2023-05-07T08:41:30;94261.03;;;31.05;25.66
73332;BME280;61560;33.718;73.040;2023-05-07T08:43:58;94245.91;;;30.95;25.83
73332;BME280;61560;33.718;73.040;2023-05-07T08:46:32;94232.34;;;30.65;26.24
73332;BME280;61560;33.718;73.040;2023-05-07T08:48:59;94227.22;;;30.56;25.57
73332;BME280;61560;33.718;73.040;2023-05-07T08:51:26;94224.50;;;30.43;26.07
73332;BME280;61560;33.718;73.040;2023-05-07T08:53:53;94218.69;;;30.48;26.40
73332;BME280;61560;33.718;73.040;2023-05-07T08:56:24;94204.13;;;30.37;26.31
73332;BME280;61560;33.718;73.040;2023-05-07T08:58:52;94212.28;;;30.20;27.12
73332;BME280;61560;33.718;73.040;2023-05-07T09:01:22;94189.25;;;30.08;25.79
73332;BME280;61560;33.718;73.040;2023-05-07T09:03:52;94185.31;;;30.11;26.19
73332;BME280;61560;33.718;73.040;2023-05-07T09:06:20;94183.19;;;30.04;25.66
73332;BME280;61560;33.718;73.040;2023-05-07T09:08:54;94175.03;;;29.93;25.90
73332;BME280;61560;33.718;73.040;2023-05-07T09:11:25;94170.13;;;29.93;26.13
73332;BME280;61560;33.718;73.040;2023-05-07T09:13:57;94162.03;;;29.90;26.54
73332;BME280;61560;33.718;73.040;2023-05-07T09:16:30;94156.78;;;29.94;26.67
73332;BME280;61560;33.718;73.040;2023-05-07T09:18:59;94154.72;;;29.95;26.35
73332;BME280;61560;33.718;73.040;2023-05-07T09:21:29;94159.97;;;29.90;26.32
73332;BME280;61560;33.718;73.040;2023-05-07T09:23:58;94151.38;;;30.04;26.79
73332;BME280;61560;33.718;73.040;2023-05-07T09:26:33;94145.00;;;30.11;25.26
73332;BME280;61560;33.718;73.040;2023-05-07T09:29:02;94147.88;;;30.18;25.01
73332;BME280;61560;33.718;73.040;2023-05-07T09:31:29;94150.72;;;30.26;24.90
73332;BME280;61560;33.718;73.040;2023-05-07T09:33:55;94157.81;;;30.12;25.24
73332;BME280;61560;33.718;73.040;2023-05-07T09:36:24;94155.72;;;30.05;25.35
73332;BME280;61560;33.718;73.040;2023-05-07T09:38:51;94167.69;;;29.90;25.47
73332;BME280;61560;33.718;73.040;2023-05-07T09:41:26;94161.09;;;29.95;25.83
73332;BME280;61560;33.718;73.040;2023-05-07T09:44:06;94172.69;;;30.12;25.94
73332;BME280;61560;33.718;73.040;2023-05-07T09:46:38;94179.84;;;30.13;25.61
73332;BME280;61560;33.718;73.040;2023-05-07T09:49:21;94185.50;;;30.13;25.76
73332;BME280;61560;33.718;73.040;2023-05-07T09:51:52;94188.28;;;30.06;25.20
73332;BME280;61560;33.718;73.040;2023-05-07T09:54:22;94191.22;;;29.92;26.13
73332;BME280;61560;33.718;73.040;2023-05-07T09:56:52;94179.88;;;29.85;26.55
73332;BME280;61560;33.718;73.040;2023-05-07T09:59:23;94176.91;;;29.90;26.64
73332;BME280;61560;33.718;73.040;2023-05-07T10:01:51;94169.38;;;29.93;26.94
73332;BME280;61560;33.718;73.040;2023-05-07T10:04:19;94171.31;;;29.98;27.47
73332;BME280;61560;33.718;73.040;2023-05-07T10:06:47;94159.44;;;30.00;27.66
73332;BME280;61560;33.718;73.040;2023-05-07T10:09:17;94164.00;;;30.03;27.63
73332;BME280;61560;33.718;73.040;2023-05-07T10:11:45;94160.03;;;30.06;27.75
73332;BME280;61560;33.718;73.040;2023-05-07T10:14:13;94153.50;;;30.11;27.24
73332;BME280;61560;33.718;73.040;2023-05-07T10:16:41;94149.34;;;30.12;26.81
73332;BME280;61560;33.718;73.040;2023-05-07T10:19:13;94144.81;;;30.09;26.99
73332;BME280;61560;33.718;73.040;2023-05-07T10:21:59;94144.09;;;30.16;27.45
73332;BME280;61560;33.718;73.040;2023-05-07T10:24:33;94149.63;;;30.29;26.74
73332;BME280;61560;33.718;73.040;2023-05-07T10:27:11;94138.88;;;30.27;26.69
73332;BME280;61560;33.718;73.040;2023-05-07T10:35:27;94119.19;;;30.42;26.37
73332;BME280;61560;33.718;73.040;2023-05-07T10:37:58;94117.13;;;30.43;26.86
73332;BME280;61560;33.718;73.040;2023-05-07T10:40:28;94122.59;;;30.48;26.63
73332;BME280;61560;33.718;73.040;2023-05-07T10:42:59;94113.19;;;30.46;26.25
73332;BME280;61560;33.718;73.040;2023-05-07T10:45:30;94111.25;;;30.33;25.85
73332;BME280;61560;33.718;73.040;2023-05-07T10:48:15;94102.00;;;30.33;26.31
73332;BME280;61560;33.718;73.040;2023-05-07T10:50:47;94101.81;;;30.31;26.46
73332;BME280;61560;33.718;73.040;2023-05-07T10:55:51;94095.53;;;30.25;26.91
73332;BME280;61560;33.718;73.040;2023-05-07T10:58:27;94092.97;;;30.34;27.46
73332;BME280;61560;33.718;73.040;2023-05-07T11:01:12;94095.06;;;30.41;27.73
73332;BME280;61560;33.718;73.040;2023-05-07T11:04:14;94082.63;;;30.37;28.50
73332;BME280;61560;33.718;73.040;2023-05-07T11:09:56;94065.97;;;30.26;26.92
73332;BME280;61560;33.718;73.040;2023-05-07T11:12:51;94054.28;;;30.22;27.18
73332;BME280;61560;33.718;73.040;2023-05-07T11:15:34;94052.00;;;30.20;27.29
73332;BME280;61560;33.718;73.040;2023-05-07T11:18:05;94043.16;;;30.16;27.37
73332;BME280;61560;33.718;73.040;2023-05-07T11:26:46;94069.22;;;29.94;28.36
73332;BME280;61560;33.718;73.040;2023-05-07T11:29:22;94074.88;;;29.94;27.86
73332;BME280;61560;33.718;73.040;2023-05-07T11:31:57;94069.41;;;29.88;27.62
73332;BME280;61560;33.718;73.040;2023-05-07T11:34:31;94068.25;;;29.84;28.16
73332;BME280;61560;33.718;73.040;2023-05-07T11:36:59;94058.25;;;29.83;27.55
73332;BME280;61560;33.718;73.040;2023-05-07T11:39:47;94055.63;;;29.85;27.98
73332;BME280;61560;33.718;73.040;2023-05-07T11:42:28;94056.94;;;29.84;27.62
73332;BME280;61560;33.718;73.040;2023-05-07T11:44:55;94054.13;;;29.84;27.89
73332;BME280;61560;33.718;73.040;2023-05-07T11:47:22;94053.72;;;29.80;28.27
73332;BME280;61560;33.718;73.040;2023-05-07T11:49:54;94051.44;;;29.78;28.58
73332;BME280;61560;33.718;73.040;2023-05-07T11:52:23;94056.69;;;29.74;29.02
73332;BME280;61560;33.718;73.040;2023-05-07T11:54:55;94058.50;;;29.64;28.91
73332;BME280;61560;33.718;73.040;2023-05-07T11:57:27;94052.06;;;29.56;29.05
73332;BME280;61560;33.718;73.040;2023-05-07T11:59:55;94053.31;;;29.48;29.22
73332;BME280;61560;33.718;73.040;2023-05-07T12:02:22;94052.91;;;29.44;29.83
73332;BME280;61560;33.718;73.040;2023-05-07T12:04:54;94051.97;;;29.41;30.38
73332;BME280;61560;33.718;73.040;2023-05-07T12:07:24;94058.72;;;29.38;29.66
73332;BME280;61560;33.718;73.040;2023-05-07T12:09:52;94062.84;;;29.37;30.28
73332;BME280;61560;33.718;73.040;2023-05-07T12:12:18;94058.31;;;29.34;30.29
73332;BME280;61560;33.718;73.040;2023-05-07T12:14:46;94071.81;;;29.28;30.38
73332;BME280;61560;33.718;73.040;2023-05-07T12:17:13;94072.16;;;29.25;30.63
73332;BME280;61560;33.718;73.040;2023-05-07T12:19:42;94072.69;;;29.23;30.36
73332;BME280;61560;33.718;73.040;2023-05-07T12:22:10;94066.66;;;29.19;30.47
73332;BME280;61560;33.718;73.040;2023-05-07T12:24:56;94069.06;;;29.15;31.27
73332;BME280;61560;33.718;73.040;2023-05-07T12:27:27;94076.69;;;29.07;31.13
73332;BME280;61560;33.718;73.040;2023-05-07T12:29:53;94077.03;;;29.03;31.59
73332;BME280;61560;33.718;73.040;2023-05-07T12:32:21;94069.81;;;28.95;31.28
73332;BME280;61560;33.718;73.040;2023-05-07T12:34:51;94076.22;;;28.95;31.30
73332;BME280;61560;33.718;73.040;2023-05-07T12:37:25;94077.31;;;28.92;31.60
73332;BME280;61560;33.718;73.040;2023-05-07T12:40:09;94084.06;;;28.89;31.90
73332;BME280;61560;33.718;73.040;2023-05-07T12:42:38;94083.44;;;28.83;31.93
73332;BME280;61560;33.718;73.040;2023-05-07T12:45:11;94091.13;;;28.83;31.34
73332;BME280;61560;33.718;73.040;2023-05-07T12:47:39;94098.41;;;28.78;31.36
73332;BME280;61560;33.718;73.040;2023-05-07T12:50:06;94106.31;;;28.80;31.48
73332;BME280;61560;33.718;73.040;2023-05-07T12:52:33;94092.78;;;28.78;31.61
73332;BME280;61560;33.718;73.040;2023-05-07T12:55:07;94097.78;;;28.72;31.63
73332;BME280;61560;33.718;73.040;2023-05-07T12:57:48;94117.31;;;28.70;31.63
73332;BME280;61560;33.718;73.040;2023-05-07T13:00:17;94124.81;;;28.68;32.01
73332;BME280;61560;33.718;73.040;2023-05-07T13:02:44;94125.69;;;28.63;32.10
73332;BME280;61560;33.718;73.040;2023-05-07T13:05:12;94130.91;;;28.59;32.51
73332;BME280;61560;33.718;73.040;2023-05-07T13:07:39;94136.84;;;28.55;32.36
73332;BME280;61560;33.718;73.040;2023-05-07T13:10:07;94136.97;;;28.50;32.11
73332;BME280;61560;33.718;73.040;2023-05-07T13:12:33;94137.09;;;28.44;32.25
73332;BME280;61560;33.718;73.040;2023-05-07T13:15:01;94146.84;;;28.43;32.54
73332;BME280;61560;33.718;73.040;2023-05-07T13:17:27;94138.19;;;28.41;32.64
73332;BME280;61560;33.718;73.040;2023-05-07T13:19:55;94139.28;;;28.38;32.74